Elliot Chaparral Reserve, California Weather observations

Data are for 10 minute period ending at time listed.
 Day   Time   Solar   Ave.   Ave.  Ave.  Vector  Max.   Baro.   Total    
  of    of     Rad.   Air    Rel.  Wind   Wind   Wind  Press.  Precip.   
Year   Day            Temp.  Hum.  Speed  Dir.   Gust                    
2015   (PST)  Kw/m2    F      %     mph   deg.    mph    mb.     in.     
-------------------------------------------------------------------------
 180    7:40   0.19   68.3    83    1.9   272     3.9   984.6    0.00 
 180    7:50   0.19   69.0    81    2.3   257     4.7   984.6    0.00 
 180    8:00   0.17   69.3    80    2.5   266     4.9   984.6    0.00 
 180    8:10   0.20   70.3    79    1.0   216     3.1   984.8    0.00 
 180    8:20   0.23   71.4    76    1.4   198     3.3   984.8    0.00 
 180    8:30   0.28   71.8    75    2.2   194     4.2   984.8    0.00 
 180    8:40   0.35   73.2    72    2.8   245     6.6   984.7    0.00 
 180    8:50   0.30   73.3    71    2.8   267     4.9   984.5    0.00 
 180    9:00   0.43   73.6    71    4.2   296     6.0   984.5    0.00 
 180    9:10   0.39   74.2    69    4.0   266     6.7   984.4    0.00 
 180    9:20   0.42   74.9    68    4.1   275     7.2   984.4    0.00 
 180    9:30   0.54   75.7    66    4.6   301     7.2   984.2    0.00 
 180    9:40   0.69   76.3    65    4.3   264     7.0   984.1    0.00 
 180    9:50   0.80   78.2    61    3.2   232     6.5   984.2    0.00 
 180   10:00   0.82   79.5    58    5.1   256     8.8   984.1    0.00 
 180   10:10   0.88   79.8    58    6.4   272    10.2   983.9    0.00 
 180   10:20   0.92   80.0    57    6.5   282    10.7   983.8    0.00 
 180   10:30   0.93   80.5    56    5.7   272     9.9   983.9    0.00 
 180   10:40   0.91   81.5    54    7.2   280    11.8   983.6    0.00 
 180   10:50   1.00   81.8    53    6.9   278    12.9   983.6    0.00 
 180   11:00   0.49   81.9    53    7.9   270    11.6   983.5    0.00 
 180   11:10   0.39   81.1    54    7.8   272    11.6   983.6    0.00 
 180   11:20   0.27   80.7    55    7.9   263    12.6   983.7    0.00 
 180   11:30   0.23   80.3    55    7.1   270    10.5   983.7    0.00 
 180   11:40   0.20   79.9    56    8.1   274    10.7   983.8    0.00 
 180   11:50   0.17   78.9    58    6.6   268    11.8   983.9    0.00 
 180   12:00   0.17   78.1    60    6.7   272     9.3   984.0    0.00 
 180   12:10   0.19   77.6    61    7.2   264     9.9   983.9    0.00 
 180   12:20   0.21   77.3    61    6.2   242     8.9   984.0    0.00 
 180   12:30   0.24   77.5    61    6.6   272     9.9   983.8    0.00 
 180   12:40   0.65   78.7    58    7.1   256    10.4   983.8    0.00 
 180   12:50   0.90   81.7    53    8.3   273    12.5   983.7    0.00 
 180   13:00   0.42   81.1    54    8.8   289    14.2   983.6    0.00 
 180   13:10   0.46   79.9    56    7.8   284    11.0   983.6    0.00 
 180   13:20   0.35   79.5    57    8.5   286    12.6   983.5    0.00 
 180   13:30   0.28   78.1    60    8.7   284    11.2   983.5    0.00 
 180   13:40   0.29   77.4    62    7.4   294    10.7   983.6    0.00 
 180   13:50   0.31   77.3    62    7.8   270    12.6   983.6    0.00 
 180   14:00   0.29   76.8    63    8.8   260    13.4   983.7    0.00 
 180   14:10   0.31   76.5    63    9.1   247    12.9   983.6    0.00 
 180   14:20   0.31   75.5    64    9.5   253    13.3   983.7    0.00 
 180   14:30   0.27   75.2    64    7.7   252    11.7   983.8    0.00 
 180   14:40   0.26   75.2    63    6.2   265     9.3   983.7    0.00 
 180   14:50   0.23   75.4    63    6.7   257    10.2   983.6    0.00 
 180   15:00   0.19   74.9    65    6.5   272    10.1   983.4    0.00 
 180   15:10   0.19   74.7    65    7.2   278    10.2   983.2    0.00 
 180   15:20   0.17   74.6    66    6.3   282     9.6   983.2    0.00 
 180   15:30   0.15   74.2    67    3.8   271     5.8   983.3    0.00 
 180   15:40   0.14   74.0    67    7.4   323    11.0   982.8    0.00 
 180   15:50   0.16   74.0    67    5.6   314     8.9   982.9    0.00 
 180   16:00   0.16   74.3    67    6.5   248     8.8   983.1    0.00 
 180   16:10   0.19   73.5    68    6.8   268    10.9   982.9    0.00 
 180   16:20   0.20   73.9    68    5.7   257     7.9   983.0    0.00 
 180   16:30   0.14   73.8    68    5.8   283     7.7   983.0    0.00 
 180   16:40   0.19   73.1    69    5.0   281     6.7   982.9    0.00 
 180   16:50   0.19   73.9    68    4.8   288     7.6   982.8    0.00 
 180   17:00   0.23   73.4    69    4.8   302     7.7   982.8    0.00 
 180   17:10   0.10   73.8    68    5.7   312     8.0   982.7    0.00 
 180   17:20   0.06   72.4    70    6.3   312     9.3   982.8    0.00 
 180   17:30   0.06   71.5    72    6.5   293     8.5   982.8    0.00 
 180   17:40   0.06   70.7    74    7.2   284     8.6   982.8    0.00 
 180   17:50   0.11   70.8    74    7.3   280     9.3   982.9    0.00 
 180   18:00   0.12   71.6    72    6.9   290     8.8   982.9    0.00 
 180   18:10   0.09   72.2    70    5.0   294     6.8   983.1    0.00 
 180   18:20   0.08   71.2    73    6.2   292     8.1   983.0    0.00 
 180   18:30   0.05   70.6    74    6.2   291     7.6   983.1    0.00 
 180   18:40   0.02   69.4    76    5.1   290     6.6   983.3    0.00 
 180   18:50   0.01   68.5    78    4.8   289     6.6   983.3    0.00 
 180   19:00   0.00   67.9    79    4.4   292     5.3   983.5    0.00 
 180   19:10   0.00   67.5    80    3.6   288     4.7   983.6    0.00 
 180   19:20   0.00   67.0    81    4.9   293     6.1   983.7    0.00 
 180   19:30   0.00   66.7    82    4.6   304     5.6   983.7    0.00 
 180   19:40   0.00   66.4    82    4.2   302     5.1   983.8    0.00 
 180   19:50   0.00   66.2    83    3.9   318     6.4   983.7    0.00 
 180   20:00   0.00   66.0    83    5.2   326     6.5   983.6    0.00 
 180   20:10   0.00   65.9    84    5.2   335     6.8   983.6    0.00 
 180   20:20   0.00   65.7    84    2.4   299     4.8   983.8    0.00 
 180   20:30   0.00   65.5    84    3.7   296     5.0   983.9    0.00 
 180   20:40   0.00   65.2    85    2.8   314     3.6   984.2    0.00 
 180   20:50   0.00   65.0    85    3.4   331     4.1   984.3    0.00 
 180   21:00   0.00   65.0    85    2.4   358     3.3   984.4    0.00 
 180   21:10   0.00   65.1    85    1.6    19     2.7   984.5    0.00 
 180   21:20   0.00   65.1    85    1.9   330     2.6   984.3    0.00 
 180   21:30   0.00   65.2    85    1.7   346     2.3   984.2    0.00 
 180   21:40   0.00   65.1    85    0.9    30     1.8   984.3    0.00 
 180   21:50   0.00   65.2    85    2.7    64     4.2   984.4    0.00 
 180   22:00   0.00   65.5    85    3.5    63     4.5   984.5    0.00 
 180   22:10   0.00   66.5    84    1.5    39     3.8   984.4    0.00 
 180   22:20   0.00   67.0    82    1.5    54     3.0   984.3    0.00 
 180   22:30   0.00   66.6    83    1.7    56     2.8   984.3    0.00 
 180   22:40   0.00   67.1    81    1.3   282     2.1   984.1    0.00 
 180   22:50   0.00   66.4    82    1.1   296     1.8   984.1    0.00 
 180   23:00   0.00   66.0    83    2.4   346     3.3   984.1    0.00 
 180   23:10   0.00   65.8    84    1.8   306     2.6   984.0    0.00 
 180   23:20   0.00   65.4    85    1.4   288     2.0   983.9    0.00 
 180   23:30   0.00   65.3    85    1.1   284     2.0   983.8    0.00 
 180   23:40   0.00   64.8    86    3.2   278     4.3   983.8    0.00 
 180   23:50   0.00   64.3    87    2.8   285     4.1   983.9    0.00 
 181    0:00   0.00   64.1    88    1.2   330     2.7   983.9    0.00 
 181    0:10   0.00   64.1    88    1.5   349     2.9   984.0    0.00 
 181    0:20   0.00   64.1    88    1.9   312     3.1   983.8    0.00 
 181    0:30   0.00   64.1    88    1.4   322     2.9   983.7    0.00 
 181    0:40   0.00   63.9    89    1.3   288     3.1   983.5    0.00 
 181    0:50   0.00   63.5    89    0.6    39     2.0   983.5    0.00 
 181    1:00   0.00   63.8    89    0.2    35     1.4   983.5    0.00 
 181    1:10   0.00   63.9    90    0.9   315     2.5   983.4    0.00 
 181    1:20   0.00   63.5    90    2.7    12     3.5   983.4    0.00 
 181    1:30   0.00   63.2    90    1.4   116     3.6   983.4    0.00 
 181    1:40   0.00   64.0    90    0.2   200     1.0   983.2    0.00 
 181    1:50   0.00   64.1    89    2.0    22     3.7   983.1    0.00 
 181    2:00   0.00   63.5    89    3.8   355     4.5   982.9    0.00 
 181    2:10   0.00   63.4    90    3.6     7     4.6   982.9    0.00 
 181    2:20   0.00   63.3    90    3.6   335     4.7   982.9    0.00 
 181    2:30   0.00   63.4    90    1.7   350     2.5   982.9    0.00 
 181    2:40   0.00   63.4    90    2.5   308     3.6   982.9    0.00 
 181    2:50   0.00   63.0    91    3.5   288     4.2   982.9    0.00 
 181    3:00   0.00   62.8    91    2.8   294     4.0   982.8    0.00 
 181    3:10   0.00   62.8    92    3.5   313     3.9   982.8    0.00 
 181    3:20   0.00   62.7    92    3.4   307     4.4   982.9    0.00 
 181    3:30   0.00   62.7    92    2.7   321     3.4   982.9    0.00 
 181    3:40   0.00   62.8    93    3.8   331     5.5   983.1    0.00 
 181    3:50   0.00   63.0    93    1.9   323     3.4   983.3    0.00 
 181    4:00   0.00   63.0    93    1.7   299     3.4   983.4    0.00 
 181    4:10   0.00   63.0    93    0.3    12     1.5   983.5    0.00 
 181    4:20   0.00   62.7    93    0.7    39     1.6   983.5    0.00 
 181    4:30   0.00   63.0    93    0.4   334     1.0   983.5    0.00 
 181    4:40   0.00   63.0    93    1.1   324     2.3   983.5    0.00 
 181    4:50   0.00   63.0    93    1.2    31     2.1   983.6    0.00 
 181    5:00   0.00   63.0    93    0.5    61     1.7   983.5    0.00 
 181    5:10   0.01   62.8    93    1.2    28     2.6   983.6    0.00 
 181    5:20   0.02   62.8    93    3.0   359     4.7   983.6    0.00 
 181    5:30   0.04   62.7    94    3.5   353     5.3   983.6    0.00 
 181    5:40   0.07   63.0    94    2.2    10     3.3   983.5    0.00 
 181    5:50   0.10   63.9    94    1.3    70     2.4   983.7    0.00 
 181    6:00   0.14   65.5    93    0.7    86     1.8   983.8    0.00 
 181    6:10   0.17   66.4    91    0.8   255     2.3   983.8    0.00 
 181    6:20   0.22   66.4    90    2.9   313     3.9   983.8    0.00 
 181    6:30   0.25   67.6    88    1.7   338     3.0   984.0    0.00 
 181    6:40   0.26   68.4    83    2.6   283     4.4   983.8    0.00 
 181    6:50   0.29   70.3    78    1.2   303     2.8   983.8    0.00 
 181    7:00   0.33   71.8    74    1.9   289     3.3   983.9    0.00 
 181    7:10   0.37   72.7    72    1.7   296     3.5   983.9    0.00 
 181    7:20   0.43   73.6    70    2.8   242     6.3   984.0    0.00 
 181    7:30   0.45   74.0    69    2.8   246     4.8   984.0    0.00 

Return to Elliot Chaparral Reserve graphs page.


Western Regional Climate Center,wrcc@dri.edu